Northfork, WV (24868)

11:42 AM EST on February 06, 2016 (GMT -0500)
APRSWXNET | | Change Station
CLOSE
Current Station
Personal Weather Station
Location: Lashmeet, WV
Elevation: 2647 ft
Nearby Weather Stations

Elev 2647 ft 37.42 °N, 81.20 °W | Updated 23 minutes ago

Clear
Clear
37 °F
Feels Like 37 °F
N
0
Wind Variable Wind from NW
Gusts 6.0 mph

Today
High -- | Low -- °F
--% Chance of Precip.
Yesterday
High -- | Low -- °F
Precip. -- in
Pressure 30.40 in
Visibility 10.0 miles
Clouds Clear
Windchill 37 °F
Dew Point 24 °F
Humidity 59%
Rainfall in
Snow Depth Not available.
7:24 AM 5:55 PM
Waning Crescent, 5% visible
METAR KBLF 061452Z AUTO 26005KT 10SM CLR M02/M10 A3033 RMK AO2 SLP295 T10171100 51004 TSNO
Pressure 30.40 in
Visibility 10.0 miles
Clouds Clear
Windchill 37 °F
Dew Point 24 °F
Humidity 59%
Rainfall in
Snow Depth Not available.
7:24 AM 5:55 PM
Waning Crescent, 5% visible
METAR KBLF 061452Z AUTO 26005KT 10SM CLR M02/M10 A3033 RMK AO2 SLP295 T10171100 51004 TSNO

10-Day Weather Forecast

Almanac

Astronomy

Feb. 06, 2016 Rise Set
Actual Time
Civil Twilight
Nautical Twilight
Astronomical Twilight
Moon
Length of Visible Light
Length of Day
Tomorrow will be .
, % of the Moon is Illuminated

Today's Extremes

State Highs State Lows

Community

WunderPhotos

Upload Photos

1,891,017 photos uploaded!

WunderBlog® & News

Nearby

Air Quality

  Air Quality AQ Index Pollutant
Not available.

Snow Depth

Station Depth Elevation

Earthquake Activity

City Distance Mag. Time & Date
Minimum magnitude displayed is 2.5.

Coastal Water Temperatures

Place Temperature

Stations

Nearby Weather Stations

Station Location Temp. Windchill Dew Point Humidity Wind Precip. Elev Updated Type
                   

Watches & Warnings

There are currently no watches in effect.